createdAt,value
2022-10-22T00:00:08.000Z,286.59
2022-10-22T00:01:34.000Z,286.59
2022-10-22T00:03:41.000Z,286.59
2022-10-22T00:05:07.000Z,286.59
2022-10-22T00:07:14.000Z,286.59
2022-10-22T00:08:40.000Z,286.52
2022-10-22T00:10:46.000Z,286.52
2022-10-22T00:12:13.000Z,286.46
2022-10-22T00:14:19.000Z,286.46
2022-10-22T00:15:45.000Z,286.46
2022-10-22T00:17:52.000Z,286.4
2022-10-22T00:20:43.000Z,286.4
2022-10-22T00:22:09.000Z,286.4
2022-10-22T00:24:16.000Z,286.4
2022-10-22T00:25:42.000Z,286.4
2022-10-22T00:27:48.000Z,286.4
2022-10-22T00:29:15.000Z,286.34
2022-10-22T00:31:21.000Z,286.34
2022-10-22T00:32:47.000Z,286.27
2022-10-22T00:34:53.000Z,286.34
2022-10-22T00:36:20.000Z,286.34
2022-10-22T00:38:26.000Z,286.4
2022-10-22T00:39:53.000Z,286.4
2022-10-22T00:41:59.000Z,286.4
2022-10-22T00:43:25.000Z,286.46
2022-10-22T00:45:31.000Z,286.46
2022-10-22T00:46:58.000Z,286.46
2022-10-22T00:49:04.000Z,286.46
2022-10-22T00:50:31.000Z,286.46
2022-10-22T00:52:37.000Z,286.52
2022-10-22T00:54:04.000Z,286.52
2022-10-22T00:56:10.000Z,286.59
2022-10-22T00:59:01.000Z,286.52
2022-10-22T01:00:28.000Z,286.59
2022-10-22T01:02:34.000Z,286.59
2022-10-22T01:04:01.000Z,286.59
2022-10-22T01:06:07.000Z,286.59
2022-10-22T01:07:33.000Z,286.59
2022-10-22T01:09:40.000Z,286.65
2022-10-22T01:11:06.000Z,286.59
2022-10-22T01:13:12.000Z,286.71
2022-10-22T01:14:39.000Z,286.71
2022-10-22T01:16:45.000Z,286.71
2022-10-22T01:18:11.000Z,286.71
2022-10-22T01:20:18.000Z,286.71
2022-10-22T01:21:44.000Z,286.71
2022-10-22T01:23:50.000Z,286.71
2022-10-22T01:25:17.000Z,286.71
2022-10-22T01:27:23.000Z,286.71
2022-10-22T01:28:49.000Z,286.77
2022-10-22T01:30:55.000Z,286.77
2022-10-22T01:32:22.000Z,286.77
2022-10-22T01:34:28.000Z,286.77
2022-10-22T01:37:19.000Z,286.77
2022-10-22T01:38:46.000Z,286.84
2022-10-22T01:40:52.000Z,286.77
2022-10-22T01:42:18.000Z,286.77
2022-10-22T01:44:24.000Z,286.77
2022-10-22T01:45:51.000Z,286.71
2022-10-22T01:47:57.000Z,286.71
2022-10-22T01:49:24.000Z,286.71
2022-10-22T01:51:30.000Z,286.71
2022-10-22T01:52:56.000Z,286.71
2022-10-22T01:55:02.000Z,286.71
2022-10-22T01:56:29.000Z,286.65
2022-10-22T01:58:35.000Z,286.65
2022-10-22T02:00:01.000Z,286.65
2022-10-22T02:02:08.000Z,286.65
2022-10-22T02:03:34.000Z,286.65
2022-10-22T02:05:40.000Z,286.59
2022-10-22T02:07:07.000Z,286.59
2022-10-22T02:09:13.000Z,286.65
2022-10-22T02:10:39.000Z,286.59
2022-10-22T02:12:45.000Z,286.59
2022-10-22T02:15:37.000Z,286.59
2022-10-22T02:17:03.000Z,286.59
2022-10-22T02:19:09.000Z,286.52
2022-10-22T02:20:36.000Z,286.59
2022-10-22T02:22:42.000Z,286.59
2022-10-22T02:24:08.000Z,286.59
2022-10-22T02:26:14.000Z,286.59
2022-10-22T02:27:41.000Z,286.59
2022-10-22T02:29:47.000Z,286.59
2022-10-22T02:31:13.000Z,286.71
2022-10-22T02:33:19.000Z,286.71
2022-10-22T02:34:46.000Z,286.71
2022-10-22T02:36:52.000Z,286.71
2022-10-22T02:38:19.000Z,286.84
2022-10-22T02:40:25.000Z,286.84
2022-10-22T02:41:51.000Z,286.77
2022-10-22T02:43:57.000Z,286.84
2022-10-22T02:45:24.000Z,286.9
2022-10-22T02:47:30.000Z,286.9
2022-10-22T02:48:56.000Z,286.9
2022-10-22T02:51:02.000Z,286.9
2022-10-22T02:53:54.000Z,286.96
2022-10-22T02:55:20.000Z,286.96
2022-10-22T02:57:26.000Z,286.96
2022-10-22T02:58:53.000Z,286.96
2022-10-22T03:00:59.000Z,286.96
2022-10-22T03:02:25.000Z,286.96
2022-10-22T03:04:32.000Z,286.9
2022-10-22T03:05:58.000Z,286.9
2022-10-22T03:08:04.000Z,286.84
2022-10-22T03:09:31.000Z,286.84
2022-10-22T03:11:37.000Z,286.77
2022-10-22T03:13:03.000Z,286.77
2022-10-22T03:15:09.000Z,286.77
2022-10-22T03:16:36.000Z,286.77
2022-10-22T03:18:42.000Z,286.77
2022-10-22T03:20:09.000Z,286.71
2022-10-22T03:22:15.000Z,286.71
2022-10-22T03:23:41.000Z,286.71
2022-10-22T03:25:47.000Z,286.71
2022-10-22T03:27:14.000Z,286.71
2022-10-22T03:29:20.000Z,286.65
2022-10-22T03:32:12.000Z,286.65
2022-10-22T03:33:38.000Z,286.65
2022-10-22T03:35:44.000Z,286.65
2022-10-22T03:37:11.000Z,286.65
2022-10-22T03:39:17.000Z,286.65
2022-10-22T03:40:43.000Z,286.65
2022-10-22T03:42:49.000Z,286.65
2022-10-22T03:44:16.000Z,286.65
2022-10-22T03:46:22.000Z,286.65
2022-10-22T03:47:48.000Z,286.65
2022-10-22T03:49:54.000Z,286.59
2022-10-22T03:51:21.000Z,286.59
2022-10-22T03:53:27.000Z,286.52
2022-10-22T03:54:53.000Z,286.52
2022-10-22T03:57:00.000Z,286.52
2022-10-22T03:58:26.000Z,286.46
2022-10-22T04:00:32.000Z,286.46
2022-10-22T04:01:59.000Z,286.46
2022-10-22T04:04:05.000Z,286.52
2022-10-22T04:05:31.000Z,286.46
2022-10-22T04:07:37.000Z,286.46
2022-10-22T04:10:29.000Z,286.46
2022-10-22T04:11:56.000Z,286.46
2022-10-22T04:14:02.000Z,286.46
2022-10-22T04:15:28.000Z,286.4
2022-10-22T04:17:35.000Z,286.4
2022-10-22T04:19:01.000Z,286.4
2022-10-22T04:21:07.000Z,286.4
2022-10-22T04:22:34.000Z,286.34
2022-10-22T04:24:40.000Z,286.34
2022-10-22T04:26:07.000Z,286.34
2022-10-22T04:28:13.000Z,286.27
2022-10-22T04:29:39.000Z,286.34
2022-10-22T04:31:45.000Z,286.34
2022-10-22T04:33:12.000Z,286.34
2022-10-22T04:35:18.000Z,286.34
2022-10-22T04:36:45.000Z,286.34
2022-10-22T04:38:51.000Z,286.27
2022-10-22T04:40:17.000Z,286.27
2022-10-22T04:42:23.000Z,286.27
2022-10-22T04:43:50.000Z,286.27
2022-10-22T04:45:56.000Z,286.27
2022-10-22T04:48:47.000Z,286.21
2022-10-22T04:50:14.000Z,286.21
2022-10-22T04:52:20.000Z,286.21
2022-10-22T04:53:47.000Z,286.21
2022-10-22T04:55:53.000Z,286.15
2022-10-22T04:57:19.000Z,286.09
2022-10-22T04:59:25.000Z,286.09
2022-10-22T05:00:52.000Z,286.09
2022-10-22T05:02:58.000Z,286.09
2022-10-22T05:04:25.000Z,286.09
2022-10-22T05:06:31.000Z,285.96
2022-10-22T05:07:57.000Z,285.96
2022-10-22T05:10:03.000Z,285.9
2022-10-22T05:11:30.000Z,285.9
2022-10-22T05:13:36.000Z,285.84
2022-10-22T05:15:02.000Z,285.77
2022-10-22T05:17:08.000Z,285.77
2022-10-22T05:18:35.000Z,285.77
2022-10-22T05:20:41.000Z,285.71
2022-10-22T05:22:07.000Z,285.77
2022-10-22T05:24:13.000Z,285.77
2022-10-22T05:27:05.000Z,285.71
2022-10-22T05:28:31.000Z,285.71
2022-10-22T05:30:37.000Z,285.71
2022-10-22T05:32:04.000Z,285.71
2022-10-22T05:34:10.000Z,285.71
2022-10-22T05:35:36.000Z,285.65
2022-10-22T05:37:42.000Z,285.65
2022-10-22T05:39:09.000Z,285.65
2022-10-22T05:41:15.000Z,285.65
2022-10-22T05:42:42.000Z,285.59
2022-10-22T05:44:48.000Z,285.59
2022-10-22T05:46:14.000Z,285.59
2022-10-22T05:48:26.000Z,285.59
2022-10-22T05:49:53.000Z,285.59
2022-10-22T05:51:59.000Z,285.59
2022-10-22T05:53:25.000Z,285.71
2022-10-22T05:55:31.000Z,285.71
2022-10-22T05:56:58.000Z,285.65
2022-10-22T05:59:04.000Z,285.65
2022-10-22T06:00:30.000Z,285.65
2022-10-22T06:02:37.000Z,285.65
2022-10-22T06:05:28.000Z,285.59
2022-10-22T06:06:55.000Z,285.52
2022-10-22T06:09:01.000Z,285.46
2022-10-22T06:10:28.000Z,285.46
2022-10-22T06:12:34.000Z,285.4
2022-10-22T06:14:00.000Z,285.4
2022-10-22T06:16:06.000Z,285.34
2022-10-22T06:17:33.000Z,285.27
2022-10-22T06:19:39.000Z,285.34
2022-10-22T06:21:06.000Z,285.34
2022-10-22T06:23:12.000Z,285.34
2022-10-22T06:24:38.000Z,285.4
2022-10-22T06:26:49.000Z,285.4
2022-10-22T06:28:15.000Z,285.4
2022-10-22T06:30:21.000Z,285.46
2022-10-22T06:31:48.000Z,285.52
2022-10-22T06:33:54.000Z,285.59
2022-10-22T06:35:20.000Z,285.59
2022-10-22T06:37:26.000Z,285.59
2022-10-22T06:38:53.000Z,285.65
2022-10-22T06:40:59.000Z,285.65
2022-10-22T06:43:50.000Z,285.65
2022-10-22T06:45:17.000Z,285.65
2022-10-22T06:47:23.000Z,285.65
2022-10-22T06:48:49.000Z,285.65
2022-10-22T06:50:55.000Z,285.65
2022-10-22T06:52:22.000Z,285.65
2022-10-22T06:54:28.000Z,285.65
2022-10-22T06:55:55.000Z,285.71
2022-10-22T06:58:01.000Z,285.71
2022-10-22T06:59:27.000Z,285.77
2022-10-22T07:01:33.000Z,285.84
2022-10-22T07:03:00.000Z,285.77
2022-10-22T07:05:06.000Z,285.84
2022-10-22T07:06:33.000Z,285.84
2022-10-22T07:08:39.000Z,285.84
2022-10-22T07:10:05.000Z,285.9
2022-10-22T07:12:12.000Z,285.9
2022-10-22T07:13:38.000Z,285.96
2022-10-22T07:15:44.000Z,285.96
2022-10-22T07:17:11.000Z,285.96
2022-10-22T07:19:17.000Z,285.96
2022-10-22T07:22:08.000Z,286.02
2022-10-22T07:23:35.000Z,286.09
2022-10-22T07:25:41.000Z,286.09
2022-10-22T07:27:07.000Z,286.15
2022-10-22T07:29:15.000Z,286.15
2022-10-22T07:30:42.000Z,286.15
2022-10-22T07:32:48.000Z,286.21
2022-10-22T07:34:14.000Z,286.21
2022-10-22T07:36:21.000Z,286.21
2022-10-22T07:37:47.000Z,286.27
2022-10-22T07:39:53.000Z,286.34
2022-10-22T07:41:20.000Z,286.4
2022-10-22T07:43:26.000Z,286.46
2022-10-22T07:44:52.000Z,286.46
2022-10-22T07:46:58.000Z,286.4
2022-10-22T07:48:25.000Z,286.4
2022-10-22T07:50:31.000Z,286.46
2022-10-22T07:51:58.000Z,286.46
2022-10-22T07:54:04.000Z,286.46
2022-10-22T07:55:30.000Z,286.52
2022-10-22T07:57:37.000Z,286.65
2022-10-22T08:00:28.000Z,286.71
2022-10-22T08:01:55.000Z,286.77
2022-10-22T08:04:01.000Z,286.84
2022-10-22T08:05:27.000Z,286.84
2022-10-22T08:07:34.000Z,286.77
2022-10-22T08:09:00.000Z,286.9
2022-10-22T08:11:06.000Z,286.9
2022-10-22T08:12:33.000Z,286.96
2022-10-22T08:14:39.000Z,286.96
2022-10-22T08:16:05.000Z,286.96
2022-10-22T08:18:12.000Z,287.02
2022-10-22T08:19:38.000Z,287.09
2022-10-22T08:21:44.000Z,287.09
2022-10-22T08:23:11.000Z,287.15
2022-10-22T08:25:17.000Z,287.21
2022-10-22T08:26:44.000Z,287.21
2022-10-22T08:28:50.000Z,287.21
2022-10-22T08:30:16.000Z,287.27
2022-10-22T08:32:22.000Z,287.34
2022-10-22T08:33:49.000Z,287.34
2022-10-22T08:35:55.000Z,287.4
2022-10-22T08:38:46.000Z,287.4
2022-10-22T08:40:13.000Z,287.46
2022-10-22T08:42:19.000Z,287.46
2022-10-22T08:43:45.000Z,287.46
2022-10-22T08:45:51.000Z,287.46
2022-10-22T08:47:18.000Z,287.46
2022-10-22T08:49:26.000Z,287.59
2022-10-22T08:50:53.000Z,287.59
2022-10-22T08:52:59.000Z,287.65
2022-10-22T08:54:25.000Z,287.71
2022-10-22T08:56:31.000Z,287.71
2022-10-22T08:57:58.000Z,287.77
2022-10-22T09:00:04.000Z,287.77
2022-10-22T09:01:31.000Z,287.71
2022-10-22T09:03:37.000Z,287.71
2022-10-22T09:05:03.000Z,287.71
2022-10-22T09:07:15.000Z,287.77
2022-10-22T09:08:42.000Z,287.77
2022-10-22T09:10:48.000Z,287.84
2022-10-22T09:12:14.000Z,287.9
2022-10-22T09:14:24.000Z,287.9
2022-10-22T09:17:15.000Z,287.77
2022-10-22T09:18:42.000Z,287.71
2022-10-22T09:20:48.000Z,287.65
2022-10-22T09:22:15.000Z,287.59
2022-10-22T09:24:21.000Z,287.59
2022-10-22T09:25:47.000Z,287.65
2022-10-22T09:27:54.000Z,287.65
2022-10-22T09:29:20.000Z,287.65
2022-10-22T09:31:26.000Z,287.65
2022-10-22T09:32:53.000Z,287.65
2022-10-22T09:34:59.000Z,287.59
2022-10-22T09:36:25.000Z,287.59
2022-10-22T09:38:32.000Z,287.65
2022-10-22T09:39:58.000Z,287.65
2022-10-22T09:42:04.000Z,287.65
2022-10-22T09:43:31.000Z,287.65
2022-10-22T09:45:37.000Z,287.65
2022-10-22T09:47:03.000Z,287.65
2022-10-22T09:49:10.000Z,287.71
2022-10-22T09:50:36.000Z,287.71
2022-10-22T09:52:42.000Z,287.65
2022-10-22T09:55:33.000Z,287.77
2022-10-22T09:57:00.000Z,287.84
2022-10-22T09:59:06.000Z,287.84
2022-10-22T10:00:33.000Z,287.84
2022-10-22T10:02:39.000Z,287.9
2022-10-22T10:04:05.000Z,288.02
2022-10-22T10:06:14.000Z,288.15
2022-10-22T10:07:40.000Z,288.27
2022-10-22T10:09:47.000Z,288.4
2022-10-22T10:11:13.000Z,288.46
2022-10-22T10:13:20.000Z,288.34
2022-10-22T10:14:46.000Z,288.4
2022-10-22T10:16:52.000Z,288.4
2022-10-22T10:18:19.000Z,288.4
2022-10-22T10:20:25.000Z,288.4
2022-10-22T10:21:52.000Z,288.4
2022-10-22T10:23:58.000Z,288.52
2022-10-22T10:25:24.000Z,288.52
2022-10-22T10:27:30.000Z,288.52
2022-10-22T10:28:57.000Z,288.59
2022-10-22T10:31:03.000Z,288.46
2022-10-22T10:33:54.000Z,288.46
2022-10-22T10:35:21.000Z,288.52
2022-10-22T10:37:27.000Z,288.59
2022-10-22T10:38:53.000Z,288.59
2022-10-22T10:40:59.000Z,288.71
2022-10-22T10:42:26.000Z,288.71
2022-10-22T10:44:32.000Z,288.77
2022-10-22T10:45:58.000Z,288.84
2022-10-22T10:48:04.000Z,289.02
2022-10-22T10:49:31.000Z,289.02
2022-10-22T10:51:37.000Z,289.09
2022-10-22T10:53:03.000Z,289.09
2022-10-22T10:55:10.000Z,288.96
2022-10-22T10:56:36.000Z,288.96
2022-10-22T10:58:43.000Z,288.96
2022-10-22T11:00:09.000Z,288.96
2022-10-22T11:02:16.000Z,288.96
2022-10-22T11:03:42.000Z,288.96
2022-10-22T11:05:48.000Z,288.9
2022-10-22T11:07:15.000Z,288.9
2022-10-22T11:09:37.000Z,288.96
2022-10-22T11:12:28.000Z,289.34
2022-10-22T11:13:55.000Z,289.4
2022-10-22T11:16:01.000Z,289.65
2022-10-22T11:17:28.000Z,289.59
2022-10-22T11:19:34.000Z,289.52
2022-10-22T11:21:16.000Z,289.4
2022-10-22T11:23:23.000Z,289.21
2022-10-22T11:24:50.000Z,289.21
2022-10-22T11:26:56.000Z,289.15
2022-10-22T11:28:22.000Z,289.15
2022-10-22T11:30:29.000Z,289.21
2022-10-22T11:31:55.000Z,289.27
2022-10-22T11:34:01.000Z,289.27
2022-10-22T11:35:46.000Z,289.27
2022-10-22T11:37:52.000Z,289.34
2022-10-22T11:39:18.000Z,289.4
2022-10-22T11:41:24.000Z,289.46
2022-10-22T11:42:51.000Z,289.59
2022-10-22T11:44:57.000Z,289.59
2022-10-22T11:46:24.000Z,289.59
2022-10-22T11:48:30.000Z,289.65
2022-10-22T11:51:21.000Z,289.52
2022-10-22T11:52:48.000Z,289.46
2022-10-22T11:54:54.000Z,289.34
2022-10-22T11:56:21.000Z,289.27
2022-10-22T11:58:27.000Z,289.34
2022-10-22T11:59:53.000Z,289.4
2022-10-22T12:01:59.000Z,289.34
2022-10-22T12:03:26.000Z,289.34
2022-10-22T12:05:32.000Z,289.4
2022-10-22T12:06:58.000Z,289.52
2022-10-22T12:09:05.000Z,289.34
2022-10-22T12:10:31.000Z,289.34
2022-10-22T12:12:37.000Z,289.34
2022-10-22T12:14:04.000Z,289.4
2022-10-22T12:16:10.000Z,289.46
2022-10-22T12:17:39.000Z,289.46
2022-10-22T12:19:45.000Z,289.59
2022-10-22T12:21:11.000Z,289.65
2022-10-22T12:23:18.000Z,289.52
2022-10-22T12:24:44.000Z,289.52
2022-10-22T12:26:50.000Z,289.65
2022-10-22T12:29:42.000Z,289.71
2022-10-22T12:31:08.000Z,289.65
2022-10-22T12:33:14.000Z,289.77
2022-10-22T12:34:41.000Z,289.96
2022-10-22T12:36:47.000Z,289.84
2022-10-22T12:38:14.000Z,289.9
2022-10-22T12:40:20.000Z,289.77
2022-10-22T12:41:46.000Z,289.77
2022-10-22T12:43:52.000Z,289.77
2022-10-22T12:45:19.000Z,289.77
2022-10-22T12:47:25.000Z,289.77
2022-10-22T12:48:52.000Z,289.71
2022-10-22T12:50:58.000Z,289.65
2022-10-22T12:52:24.000Z,289.59
2022-10-22T12:54:30.000Z,289.52
2022-10-22T12:55:57.000Z,289.65
2022-10-22T12:58:03.000Z,289.65
2022-10-22T12:59:29.000Z,289.65
2022-10-22T13:01:36.000Z,289.65
2022-10-22T13:03:02.000Z,289.65
2022-10-22T13:05:08.000Z,289.52
2022-10-22T13:07:59.000Z,289.4
2022-10-22T13:09:26.000Z,289.34
2022-10-22T13:11:35.000Z,289.27
2022-10-22T13:13:01.000Z,289.27
2022-10-22T13:15:07.000Z,289.27
2022-10-22T13:18:40.000Z,289.21
2022-10-22T13:20:06.000Z,289.21
2022-10-22T13:22:12.000Z,289.27
2022-10-22T13:23:39.000Z,289.21
2022-10-22T13:25:45.000Z,289.15
2022-10-22T13:27:11.000Z,289.15
2022-10-22T13:29:18.000Z,289.09
2022-10-22T13:30:44.000Z,289.09
2022-10-22T13:32:50.000Z,288.96
2022-10-22T13:34:17.000Z,288.96
2022-10-22T13:36:23.000Z,288.84
2022-10-22T13:37:49.000Z,288.84
2022-10-22T13:39:55.000Z,288.96
2022-10-22T13:41:22.000Z,289.02
2022-10-22T13:43:28.000Z,289.15
2022-10-22T13:46:19.000Z,289.21
2022-10-22T13:47:46.000Z,289.21
2022-10-22T13:49:52.000Z,289.27
2022-10-22T13:51:21.000Z,289.34
2022-10-22T13:53:27.000Z,289.34
2022-10-22T13:54:54.000Z,289.46
2022-10-22T13:57:00.000Z,289.46
2022-10-22T13:58:26.000Z,289.4
2022-10-22T14:00:32.000Z,289.15
2022-10-22T14:01:59.000Z,289.15
2022-10-22T14:04:05.000Z,289.27
2022-10-22T14:05:32.000Z,289.4
2022-10-22T14:07:38.000Z,289.4
2022-10-22T14:09:05.000Z,289.34
2022-10-22T14:11:11.000Z,289.27
2022-10-22T14:12:38.000Z,289.21
2022-10-22T14:14:44.000Z,289.15
2022-10-22T14:16:10.000Z,289.21
2022-10-22T14:18:17.000Z,289.27
2022-10-22T14:19:43.000Z,289.15
2022-10-22T14:21:49.000Z,289.09
2022-10-22T14:24:40.000Z,289.02
2022-10-22T14:26:07.000Z,288.96
2022-10-22T14:28:13.000Z,288.96
2022-10-22T14:29:39.000Z,288.96
2022-10-22T14:31:45.000Z,288.96
2022-10-22T14:33:12.000Z,289.02
2022-10-22T14:35:18.000Z,289.15
2022-10-22T14:36:45.000Z,289.21
2022-10-22T14:38:51.000Z,289.15
2022-10-22T14:40:17.000Z,289.15
2022-10-22T14:42:23.000Z,289.02
2022-10-22T14:43:50.000Z,289.02
2022-10-22T14:45:56.000Z,289.02
2022-10-22T14:47:22.000Z,289.02
2022-10-22T14:49:28.000Z,289.02
2022-10-22T14:50:55.000Z,289.02
2022-10-22T14:53:01.000Z,289.09
2022-10-22T14:54:28.000Z,289.02
2022-10-22T14:58:01.000Z,288.96
2022-10-22T15:00:07.000Z,288.96
2022-10-22T15:02:59.000Z,288.9
2022-10-22T15:04:28.000Z,288.77
2022-10-22T15:06:34.000Z,288.84
2022-10-22T15:08:01.000Z,288.84
2022-10-22T15:10:07.000Z,288.84
2022-10-22T15:11:33.000Z,288.9
2022-10-22T15:13:40.000Z,288.9
2022-10-22T15:15:06.000Z,288.9
2022-10-22T15:17:12.000Z,288.9
2022-10-22T15:18:39.000Z,288.96
2022-10-22T15:20:45.000Z,288.9
2022-10-22T15:22:11.000Z,288.9
2022-10-22T15:24:18.000Z,288.84
2022-10-22T15:25:44.000Z,288.84
2022-10-22T15:27:50.000Z,288.77
2022-10-22T15:29:23.000Z,288.77
2022-10-22T15:31:30.000Z,288.65
2022-10-22T15:32:56.000Z,288.59
2022-10-22T15:35:02.000Z,288.46
2022-10-22T15:36:29.000Z,288.4
2022-10-22T15:38:35.000Z,288.27
2022-10-22T15:41:26.000Z,288.15
2022-10-22T15:42:52.000Z,288.09
2022-10-22T15:44:58.000Z,288.09
2022-10-22T15:46:25.000Z,288.02
2022-10-22T15:48:37.000Z,287.96
2022-10-22T15:50:03.000Z,287.9
2022-10-22T15:52:09.000Z,287.84
2022-10-22T15:53:36.000Z,287.84
2022-10-22T15:55:42.000Z,287.77
2022-10-22T15:57:09.000Z,287.77
2022-10-22T15:59:15.000Z,287.77
2022-10-22T16:00:41.000Z,287.77
2022-10-22T16:02:47.000Z,287.71
2022-10-22T16:04:14.000Z,287.71
2022-10-22T16:06:20.000Z,287.77
2022-10-22T16:07:47.000Z,287.77
2022-10-22T16:09:53.000Z,287.77
2022-10-22T16:11:19.000Z,287.77
2022-10-22T16:13:25.000Z,287.77
2022-10-22T16:14:52.000Z,287.77
2022-10-22T16:16:58.000Z,287.77
2022-10-22T16:19:49.000Z,287.77
2022-10-22T16:21:16.000Z,287.77
2022-10-22T16:23:22.000Z,287.77
2022-10-22T16:24:49.000Z,287.77
2022-10-22T16:26:55.000Z,287.77
2022-10-22T16:28:21.000Z,287.77
2022-10-22T16:30:27.000Z,287.77
2022-10-22T16:31:54.000Z,287.84
2022-10-22T16:34:00.000Z,287.84
2022-10-22T16:35:27.000Z,287.84
2022-10-22T16:37:33.000Z,287.77
2022-10-22T16:38:59.000Z,287.77
2022-10-22T16:41:05.000Z,287.77
2022-10-22T16:42:32.000Z,287.77
2022-10-22T16:44:38.000Z,287.77
2022-10-22T16:46:04.000Z,287.77
2022-10-22T16:48:10.000Z,287.71
2022-10-22T16:49:37.000Z,287.71
2022-10-22T16:51:43.000Z,287.65
2022-10-22T16:53:10.000Z,287.65
2022-10-22T16:55:16.000Z,287.65
2022-10-22T16:58:07.000Z,287.65
2022-10-22T16:59:33.000Z,287.59
2022-10-22T17:01:39.000Z,287.52
2022-10-22T17:03:06.000Z,287.52
2022-10-22T17:05:12.000Z,287.46
2022-10-22T17:06:39.000Z,287.34
2022-10-22T17:08:45.000Z,287.4
2022-10-22T17:10:11.000Z,287.46
2022-10-22T17:12:18.000Z,287.46
2022-10-22T17:13:44.000Z,287.34
2022-10-22T17:15:50.000Z,287.27
2022-10-22T17:17:17.000Z,287.27
2022-10-22T17:19:23.000Z,287.15
2022-10-22T17:20:49.000Z,287.15
2022-10-22T17:22:56.000Z,287.15
2022-10-22T17:24:22.000Z,287.09
2022-10-22T17:26:28.000Z,287.15
2022-10-22T17:27:55.000Z,287.02
2022-10-22T17:30:01.000Z,287.09
2022-10-22T17:31:27.000Z,287.02
2022-10-22T17:33:33.000Z,286.96
2022-10-22T17:36:25.000Z,286.9
2022-10-22T17:37:56.000Z,286.9
2022-10-22T17:40:02.000Z,286.84
2022-10-22T17:41:28.000Z,286.84
2022-10-22T17:43:34.000Z,286.84
2022-10-22T17:45:01.000Z,286.77
2022-10-22T17:47:07.000Z,286.71
2022-10-22T17:48:34.000Z,286.71
2022-10-22T17:50:40.000Z,286.71
2022-10-22T17:52:10.000Z,286.71
2022-10-22T17:54:16.000Z,286.65
2022-10-22T17:55:42.000Z,286.59
2022-10-22T17:57:48.000Z,286.52
2022-10-22T17:59:15.000Z,286.52
2022-10-22T18:01:21.000Z,286.4
2022-10-22T18:02:48.000Z,286.46
2022-10-22T18:04:54.000Z,286.4
2022-10-22T18:06:20.000Z,286.4
2022-10-22T18:08:27.000Z,286.34
2022-10-22T18:09:53.000Z,286.27
2022-10-22T18:11:59.000Z,286.27
2022-10-22T18:14:50.000Z,286.15
2022-10-22T18:16:17.000Z,286.15
2022-10-22T18:18:23.000Z,286.09
2022-10-22T18:19:49.000Z,286.02
2022-10-22T18:21:55.000Z,285.96
2022-10-22T18:23:22.000Z,285.9
2022-10-22T18:25:28.000Z,285.84
2022-10-22T18:26:55.000Z,285.84
2022-10-22T18:29:01.000Z,285.77
2022-10-22T18:30:27.000Z,285.84
2022-10-22T18:32:33.000Z,285.84
2022-10-22T18:34:00.000Z,285.77
2022-10-22T18:36:06.000Z,285.77
2022-10-22T18:37:32.000Z,285.77
2022-10-22T18:39:38.000Z,285.71
2022-10-22T18:41:05.000Z,285.65
2022-10-22T18:43:11.000Z,285.59
2022-10-22T18:44:37.000Z,285.52
2022-10-22T18:46:44.000Z,285.46
2022-10-22T18:48:10.000Z,285.46
2022-10-22T18:50:16.000Z,285.46
2022-10-22T18:53:07.000Z,285.52
2022-10-22T18:54:34.000Z,285.52
2022-10-22T18:56:40.000Z,285.4
2022-10-22T18:58:07.000Z,285.46
2022-10-22T19:00:13.000Z,285.4
2022-10-22T19:01:39.000Z,285.34
2022-10-22T19:03:45.000Z,285.27
2022-10-22T19:05:12.000Z,285.21
2022-10-22T19:07:18.000Z,285.02
2022-10-22T19:08:44.000Z,284.96
2022-10-22T19:10:55.000Z,284.9
2022-10-22T19:12:21.000Z,284.9
2022-10-22T19:14:27.000Z,284.9
2022-10-22T19:15:54.000Z,284.84
2022-10-22T19:18:00.000Z,284.77
2022-10-22T19:19:26.000Z,284.77
2022-10-22T19:21:33.000Z,284.84
2022-10-22T19:22:59.000Z,284.77
2022-10-22T19:25:05.000Z,284.65
2022-10-22T19:26:36.000Z,284.59
2022-10-22T19:28:42.000Z,284.59
2022-10-22T19:31:33.000Z,284.52
2022-10-22T19:33:00.000Z,284.52
2022-10-22T19:35:06.000Z,284.52
2022-10-22T19:36:32.000Z,284.52
2022-10-22T19:38:39.000Z,284.46
2022-10-22T19:40:05.000Z,284.52
2022-10-22T19:42:11.000Z,284.4
2022-10-22T19:43:38.000Z,284.34
2022-10-22T19:45:44.000Z,284.34
2022-10-22T19:47:10.000Z,284.27
2022-10-22T19:49:16.000Z,284.27
2022-10-22T19:50:47.000Z,284.34
2022-10-22T19:52:53.000Z,284.27
2022-10-22T19:54:20.000Z,284.21
2022-10-22T19:56:26.000Z,284.21
2022-10-22T19:57:52.000Z,284.27
2022-10-22T19:59:58.000Z,284.21
2022-10-22T20:01:25.000Z,284.21
2022-10-22T20:03:31.000Z,284.27
2022-10-22T20:04:58.000Z,284.27
2022-10-22T20:07:04.000Z,284.09
2022-10-22T20:09:55.000Z,283.96
2022-10-22T20:11:22.000Z,283.9
2022-10-22T20:13:28.000Z,283.77
2022-10-22T20:14:54.000Z,283.77
2022-10-22T20:17:01.000Z,283.77
2022-10-22T20:18:27.000Z,283.71
2022-10-22T20:20:33.000Z,283.71
2022-10-22T20:22:00.000Z,283.77
2022-10-22T20:24:06.000Z,283.77
2022-10-22T20:25:32.000Z,283.84
2022-10-22T20:27:39.000Z,283.77
2022-10-22T20:29:05.000Z,283.71
2022-10-22T20:31:11.000Z,283.71
2022-10-22T20:32:38.000Z,283.65
2022-10-22T20:34:45.000Z,283.65
2022-10-22T20:36:11.000Z,283.65
2022-10-22T20:38:17.000Z,283.52
2022-10-22T20:39:44.000Z,283.52
2022-10-22T20:41:50.000Z,283.46
2022-10-22T20:43:16.000Z,283.46
2022-10-22T20:45:22.000Z,283.52
2022-10-22T20:48:14.000Z,283.52
2022-10-22T20:49:40.000Z,283.52
2022-10-22T20:51:46.000Z,283.46
2022-10-22T20:53:13.000Z,283.4
2022-10-22T20:55:21.000Z,283.4
2022-10-22T20:56:47.000Z,283.46
2022-10-22T20:58:53.000Z,283.46
2022-10-22T21:00:20.000Z,283.4
2022-10-22T21:02:26.000Z,283.34
2022-10-22T21:03:52.000Z,283.34
2022-10-22T21:05:58.000Z,283.34
2022-10-22T21:07:25.000Z,283.34
2022-10-22T21:09:31.000Z,283.27
2022-10-22T21:10:57.000Z,283.27
2022-10-22T21:13:04.000Z,283.34
2022-10-22T21:14:30.000Z,283.27
2022-10-22T21:16:36.000Z,283.21
2022-10-22T21:18:03.000Z,283.27
2022-10-22T21:21:35.000Z,283.21
2022-10-22T21:23:41.000Z,283.34
2022-10-22T21:26:32.000Z,283.27
2022-10-22T21:27:59.000Z,283.21
2022-10-22T21:30:05.000Z,283.15
2022-10-22T21:31:31.000Z,283.02
2022-10-22T21:33:37.000Z,282.96
2022-10-22T21:35:04.000Z,283.02
2022-10-22T21:37:10.000Z,283.09
2022-10-22T21:38:37.000Z,283.09
2022-10-22T21:40:43.000Z,283.02
2022-10-22T21:42:09.000Z,283.02
2022-10-22T21:44:15.000Z,283.02
2022-10-22T21:45:42.000Z,283.02
2022-10-22T21:47:48.000Z,282.96
2022-10-22T21:49:14.000Z,282.96
2022-10-22T21:51:20.000Z,282.96
2022-10-22T21:52:47.000Z,283.02
2022-10-22T21:54:53.000Z,283.02
2022-10-22T21:56:19.000Z,282.96
2022-10-22T21:58:26.000Z,282.96
2022-10-22T21:59:52.000Z,282.9
2022-10-22T22:01:58.000Z,282.84
2022-10-22T22:04:54.000Z,282.84
2022-10-22T22:06:21.000Z,282.84
2022-10-22T22:08:27.000Z,282.84
2022-10-22T22:09:53.000Z,282.9
2022-10-22T22:12:00.000Z,282.9
2022-10-22T22:13:26.000Z,282.9
2022-10-22T22:15:32.000Z,282.84
2022-10-22T22:16:59.000Z,282.9
2022-10-22T22:19:05.000Z,282.9
2022-10-22T22:20:31.000Z,282.84
2022-10-22T22:22:38.000Z,282.77
2022-10-22T22:24:05.000Z,282.77
2022-10-22T22:26:11.000Z,282.71
2022-10-22T22:27:37.000Z,282.77
2022-10-22T22:29:44.000Z,282.71
2022-10-22T22:31:10.000Z,282.77
2022-10-22T22:33:17.000Z,282.71
2022-10-22T22:34:43.000Z,282.84
2022-10-22T22:36:49.000Z,282.84
2022-10-22T22:38:16.000Z,282.84
2022-10-22T22:40:22.000Z,282.77
2022-10-22T22:43:13.000Z,282.71
2022-10-22T22:44:39.000Z,282.77
2022-10-22T22:46:45.000Z,282.71
2022-10-22T22:48:12.000Z,282.71
2022-10-22T22:50:18.000Z,282.71
2022-10-22T22:51:45.000Z,282.71
2022-10-22T22:53:51.000Z,282.71
2022-10-22T22:55:17.000Z,282.71
2022-10-22T22:57:23.000Z,282.65